sensor_id;sensor_type;location;lat;lon;timestamp;temperature;humidity
40952;DHT22;26682;51.660;19.338;2024-03-02T00:00:36;7.00;99.90
40952;DHT22;26682;51.660;19.338;2024-03-02T00:04:04;7.00;99.90
40952;DHT22;26682;51.660;19.338;2024-03-02T00:06:54;7.00;99.90
40952;DHT22;26682;51.660;19.338;2024-03-02T00:09:37;7.00;99.90
40952;DHT22;26682;51.660;19.338;2024-03-02T00:12:20;7.00;99.90
40952;DHT22;26682;51.660;19.338;2024-03-02T00:18:35;7.00;99.90
40952;DHT22;26682;51.660;19.338;2024-03-02T00:21:18;7.00;99.90
40952;DHT22;26682;51.660;19.338;2024-03-02T00:24:20;7.00;99.90
40952;DHT22;26682;51.660;19.338;2024-03-02T00:27:04;7.00;99.90
40952;DHT22;26682;51.660;19.338;2024-03-02T00:29:47;7.00;99.90
40952;DHT22;26682;51.660;19.338;2024-03-02T00:32:30;7.00;99.90
40952;DHT22;26682;51.660;19.338;2024-03-02T00:35:13;7.00;99.90
40952;DHT22;26682;51.660;19.338;2024-03-02T00:37:55;7.00;99.90
40952;DHT22;26682;51.660;19.338;2024-03-02T00:40:37;7.00;99.90
40952;DHT22;26682;51.660;19.338;2024-03-02T00:49:41;7.00;99.90
40952;DHT22;26682;51.660;19.338;2024-03-02T00:52:24;7.00;99.90
40952;DHT22;26682;51.660;19.338;2024-03-02T00:55:07;7.00;99.90
40952;DHT22;26682;51.660;19.338;2024-03-02T00:57:50;7.00;99.90
40952;DHT22;26682;51.660;19.338;2024-03-02T01:00:32;7.00;99.90
40952;DHT22;26682;51.660;19.338;2024-03-02T01:03:15;7.00;99.90
40952;DHT22;26682;51.660;19.338;2024-03-02T01:05:57;7.00;99.90
40952;DHT22;26682;51.660;19.338;2024-03-02T01:08:40;7.00;99.90
40952;DHT22;26682;51.660;19.338;2024-03-02T01:11:23;7.00;99.90
40952;DHT22;26682;51.660;19.338;2024-03-02T01:14:06;7.00;99.90
40952;DHT22;26682;51.660;19.338;2024-03-02T01:16:49;7.00;99.90
40952;DHT22;26682;51.660;19.338;2024-03-02T01:19:31;7.00;99.90
40952;DHT22;26682;51.660;19.338;2024-03-02T01:22:14;7.00;99.90
40952;DHT22;26682;51.660;19.338;2024-03-02T01:24:56;7.00;99.90
40952;DHT22;26682;51.660;19.338;2024-03-02T01:27:39;7.00;99.90
40952;DHT22;26682;51.660;19.338;2024-03-02T01:30:21;7.00;99.90
40952;DHT22;26682;51.660;19.338;2024-03-02T01:33:04;7.00;99.90
40952;DHT22;26682;51.660;19.338;2024-03-02T01:35:47;7.00;99.90
40952;DHT22;26682;51.660;19.338;2024-03-02T01:38:30;7.00;99.90
40952;DHT22;26682;51.660;19.338;2024-03-02T01:41:13;7.00;99.90
40952;DHT22;26682;51.660;19.338;2024-03-02T01:43:55;7.00;99.90
40952;DHT22;26682;51.660;19.338;2024-03-02T01:46:38;7.00;99.90
40952;DHT22;26682;51.660;19.338;2024-03-02T01:49:20;7.00;99.90
40952;DHT22;26682;51.660;19.338;2024-03-02T01:52:03;7.00;99.90
40952;DHT22;26682;51.660;19.338;2024-03-02T01:54:46;7.00;99.90
40952;DHT22;26682;51.660;19.338;2024-03-02T01:57:28;7.00;99.90
40952;DHT22;26682;51.660;19.338;2024-03-02T02:00:11;7.00;99.90
40952;DHT22;26682;51.660;19.338;2024-03-02T02:02:54;7.10;99.90
40952;DHT22;26682;51.660;19.338;2024-03-02T02:05:38;7.10;99.90
40952;DHT22;26682;51.660;19.338;2024-03-02T02:08:20;7.00;99.90
40952;DHT22;26682;51.660;19.338;2024-03-02T02:11:03;7.00;99.90
40952;DHT22;26682;51.660;19.338;2024-03-02T02:13:45;7.10;99.90
40952;DHT22;26682;51.660;19.338;2024-03-02T02:16:28;7.10;99.90
40952;DHT22;26682;51.660;19.338;2024-03-02T02:19:10;7.10;99.90
40952;DHT22;26682;51.660;19.338;2024-03-02T02:21:53;7.10;99.90
40952;DHT22;26682;51.660;19.338;2024-03-02T02:24:35;7.00;99.90
40952;DHT22;26682;51.660;19.338;2024-03-02T02:27:18;7.00;99.90
40952;DHT22;26682;51.660;19.338;2024-03-02T02:30:00;7.00;99.90
40952;DHT22;26682;51.660;19.338;2024-03-02T02:32:43;7.10;99.90
40952;DHT22;26682;51.660;19.338;2024-03-02T02:35:26;7.00;99.90
40952;DHT22;26682;51.660;19.338;2024-03-02T02:38:08;7.00;99.90
40952;DHT22;26682;51.660;19.338;2024-03-02T02:40:51;6.90;99.90
40952;DHT22;26682;51.660;19.338;2024-03-02T02:43:34;6.80;99.90
40952;DHT22;26682;51.660;19.338;2024-03-02T02:46:16;6.80;99.90
40952;DHT22;26682;51.660;19.338;2024-03-02T02:48:58;6.80;99.90
40952;DHT22;26682;51.660;19.338;2024-03-02T02:51:41;6.70;99.90
40952;DHT22;26682;51.660;19.338;2024-03-02T02:54:24;6.70;99.90
40952;DHT22;26682;51.660;19.338;2024-03-02T02:57:06;6.70;99.90
40952;DHT22;26682;51.660;19.338;2024-03-02T02:59:49;6.70;99.90
40952;DHT22;26682;51.660;19.338;2024-03-02T03:03:04;6.60;99.90
40952;DHT22;26682;51.660;19.338;2024-03-02T03:05:47;6.70;99.90
40952;DHT22;26682;51.660;19.338;2024-03-02T03:08:29;6.70;99.90
40952;DHT22;26682;51.660;19.338;2024-03-02T03:11:11;6.70;99.90
40952;DHT22;26682;51.660;19.338;2024-03-02T03:13:54;6.60;99.90
40952;DHT22;26682;51.660;19.338;2024-03-02T03:16:37;6.60;99.90
40952;DHT22;26682;51.660;19.338;2024-03-02T03:19:19;6.60;99.90
40952;DHT22;26682;51.660;19.338;2024-03-02T03:22:02;6.50;99.90
40952;DHT22;26682;51.660;19.338;2024-03-02T03:24:45;6.50;99.90
40952;DHT22;26682;51.660;19.338;2024-03-02T03:27:28;6.50;99.90
40952;DHT22;26682;51.660;19.338;2024-03-02T03:30:11;6.50;99.90
40952;DHT22;26682;51.660;19.338;2024-03-02T03:32:54;6.50;99.90
40952;DHT22;26682;51.660;19.338;2024-03-02T03:35:36;6.50;99.90
40952;DHT22;26682;51.660;19.338;2024-03-02T03:38:19;6.50;99.90
40952;DHT22;26682;51.660;19.338;2024-03-02T03:41:02;6.60;99.90
40952;DHT22;26682;51.660;19.338;2024-03-02T03:43:44;6.60;99.90
40952;DHT22;26682;51.660;19.338;2024-03-02T03:46:27;6.70;99.90
40952;DHT22;26682;51.660;19.338;2024-03-02T03:49:11;6.70;99.90
40952;DHT22;26682;51.660;19.338;2024-03-02T03:51:53;6.70;99.90
40952;DHT22;26682;51.660;19.338;2024-03-02T03:54:36;6.70;99.90
40952;DHT22;26682;51.660;19.338;2024-03-02T03:57:20;6.70;99.90
40952;DHT22;26682;51.660;19.338;2024-03-02T04:00:03;6.80;99.90
40952;DHT22;26682;51.660;19.338;2024-03-02T04:02:55;6.70;99.90
40952;DHT22;26682;51.660;19.338;2024-03-02T04:05:39;6.70;99.90
40952;DHT22;26682;51.660;19.338;2024-03-02T04:08:21;6.70;99.90
40952;DHT22;26682;51.660;19.338;2024-03-02T04:11:04;6.70;99.90
40952;DHT22;26682;51.660;19.338;2024-03-02T04:13:47;6.70;99.90
40952;DHT22;26682;51.660;19.338;2024-03-02T04:16:30;6.70;99.90
40952;DHT22;26682;51.660;19.338;2024-03-02T04:19:12;6.80;99.90
40952;DHT22;26682;51.660;19.338;2024-03-02T04:21:54;6.70;99.90
40952;DHT22;26682;51.660;19.338;2024-03-02T04:24:37;6.70;99.90
40952;DHT22;26682;51.660;19.338;2024-03-02T04:27:19;6.60;99.90
40952;DHT22;26682;51.660;19.338;2024-03-02T04:30:03;6.60;99.90
40952;DHT22;26682;51.660;19.338;2024-03-02T04:32:47;6.50;99.90
40952;DHT22;26682;51.660;19.338;2024-03-02T04:35:31;6.50;99.90
40952;DHT22;26682;51.660;19.338;2024-03-02T04:38:13;6.40;99.90
40952;DHT22;26682;51.660;19.338;2024-03-02T04:40:56;6.40;99.90
40952;DHT22;26682;51.660;19.338;2024-03-02T04:43:38;6.30;99.90
40952;DHT22;26682;51.660;19.338;2024-03-02T04:46:21;6.30;99.90
40952;DHT22;26682;51.660;19.338;2024-03-02T04:49:03;6.30;99.90
40952;DHT22;26682;51.660;19.338;2024-03-02T04:51:46;6.30;99.90
40952;DHT22;26682;51.660;19.338;2024-03-02T04:54:28;6.20;99.90
40952;DHT22;26682;51.660;19.338;2024-03-02T04:57:12;6.20;99.90
40952;DHT22;26682;51.660;19.338;2024-03-02T04:59:54;6.30;99.90
40952;DHT22;26682;51.660;19.338;2024-03-02T05:02:37;6.20;99.90
40952;DHT22;26682;51.660;19.338;2024-03-02T05:05:19;6.20;99.90
40952;DHT22;26682;51.660;19.338;2024-03-02T05:08:03;6.20;99.90
40952;DHT22;26682;51.660;19.338;2024-03-02T05:10:45;6.10;99.90
40952;DHT22;26682;51.660;19.338;2024-03-02T05:13:28;6.10;99.90
40952;DHT22;26682;51.660;19.338;2024-03-02T05:16:10;6.10;99.90
40952;DHT22;26682;51.660;19.338;2024-03-02T05:18:54;6.10;99.90
40952;DHT22;26682;51.660;19.338;2024-03-02T05:21:36;6.10;99.90
40952;DHT22;26682;51.660;19.338;2024-03-02T05:24:19;6.00;99.90
40952;DHT22;26682;51.660;19.338;2024-03-02T05:27:01;6.00;99.90
40952;DHT22;26682;51.660;19.338;2024-03-02T05:29:44;6.10;99.90
40952;DHT22;26682;51.660;19.338;2024-03-02T05:32:26;6.00;99.90
40952;DHT22;26682;51.660;19.338;2024-03-02T05:35:09;6.00;99.90
40952;DHT22;26682;51.660;19.338;2024-03-02T05:37:53;6.00;99.90
40952;DHT22;26682;51.660;19.338;2024-03-02T05:40:35;6.00;99.90
40952;DHT22;26682;51.660;19.338;2024-03-02T05:43:18;5.90;99.90
40952;DHT22;26682;51.660;19.338;2024-03-02T05:46:02;6.00;99.90
40952;DHT22;26682;51.660;19.338;2024-03-02T05:48:46;5.90;99.90
40952;DHT22;26682;51.660;19.338;2024-03-02T05:51:29;5.90;99.90
40952;DHT22;26682;51.660;19.338;2024-03-02T05:54:12;6.00;99.90
40952;DHT22;26682;51.660;19.338;2024-03-02T05:56:54;5.90;99.90
40952;DHT22;26682;51.660;19.338;2024-03-02T05:59:37;5.90;99.90
40952;DHT22;26682;51.660;19.338;2024-03-02T06:02:20;5.90;99.90
40952;DHT22;26682;51.660;19.338;2024-03-02T06:05:03;6.00;99.90
40952;DHT22;26682;51.660;19.338;2024-03-02T06:07:46;5.90;99.90
40952;DHT22;26682;51.660;19.338;2024-03-02T06:10:29;6.00;99.90
40952;DHT22;26682;51.660;19.338;2024-03-02T06:13:11;5.90;99.90
40952;DHT22;26682;51.660;19.338;2024-03-02T06:15:54;6.00;99.90
40952;DHT22;26682;51.660;19.338;2024-03-02T06:18:37;5.90;99.90
40952;DHT22;26682;51.660;19.338;2024-03-02T06:21:20;6.00;99.90
40952;DHT22;26682;51.660;19.338;2024-03-02T06:24:02;6.00;99.90
40952;DHT22;26682;51.660;19.338;2024-03-02T06:26:45;6.00;99.90
40952;DHT22;26682;51.660;19.338;2024-03-02T06:29:27;6.00;99.90
40952;DHT22;26682;51.660;19.338;2024-03-02T06:32:10;6.00;99.90
40952;DHT22;26682;51.660;19.338;2024-03-02T06:34:53;6.10;99.90
40952;DHT22;26682;51.660;19.338;2024-03-02T06:37:36;6.10;99.90
40952;DHT22;26682;51.660;19.338;2024-03-02T06:40:20;6.10;99.90
40952;DHT22;26682;51.660;19.338;2024-03-02T06:43:05;6.10;99.90
40952;DHT22;26682;51.660;19.338;2024-03-02T06:45:48;6.20;99.90
40952;DHT22;26682;51.660;19.338;2024-03-02T06:48:30;6.20;99.90
40952;DHT22;26682;51.660;19.338;2024-03-02T06:51:13;6.20;99.90
40952;DHT22;26682;51.660;19.338;2024-03-02T06:53:57;6.30;99.90
40952;DHT22;26682;51.660;19.338;2024-03-02T06:56:39;6.30;99.90
40952;DHT22;26682;51.660;19.338;2024-03-02T06:59:22;6.30;99.90
40952;DHT22;26682;51.660;19.338;2024-03-02T07:02:04;6.40;99.90
40952;DHT22;26682;51.660;19.338;2024-03-02T07:04:47;6.40;99.90
40952;DHT22;26682;51.660;19.338;2024-03-02T07:07:30;6.50;99.90
40952;DHT22;26682;51.660;19.338;2024-03-02T07:10:12;6.50;99.90
40952;DHT22;26682;51.660;19.338;2024-03-02T07:12:55;6.50;99.90
40952;DHT22;26682;51.660;19.338;2024-03-02T07:15:37;6.60;99.90
40952;DHT22;26682;51.660;19.338;2024-03-02T07:18:52;6.60;99.90
40952;DHT22;26682;51.660;19.338;2024-03-02T07:21:34;6.70;99.90
40952;DHT22;26682;51.660;19.338;2024-03-02T07:24:17;6.70;99.90
40952;DHT22;26682;51.660;19.338;2024-03-02T07:27:00;6.80;99.90
40952;DHT22;26682;51.660;19.338;2024-03-02T07:29:45;6.90;99.90
40952;DHT22;26682;51.660;19.338;2024-03-02T07:32:27;7.00;99.90
40952;DHT22;26682;51.660;19.338;2024-03-02T07:35:11;7.10;99.90
40952;DHT22;26682;51.660;19.338;2024-03-02T07:37:54;7.10;99.90
40952;DHT22;26682;51.660;19.338;2024-03-02T07:40:37;7.20;99.90
40952;DHT22;26682;51.660;19.338;2024-03-02T07:43:20;7.30;99.90
40952;DHT22;26682;51.660;19.338;2024-03-02T07:46:03;7.30;99.90
40952;DHT22;26682;51.660;19.338;2024-03-02T07:48:46;7.30;99.90
40952;DHT22;26682;51.660;19.338;2024-03-02T07:51:28;7.30;99.90
40952;DHT22;26682;51.660;19.338;2024-03-02T07:54:11;7.40;99.90
40952;DHT22;26682;51.660;19.338;2024-03-02T07:56:53;7.40;99.90
40952;DHT22;26682;51.660;19.338;2024-03-02T07:59:36;7.50;99.90
40952;DHT22;26682;51.660;19.338;2024-03-02T08:02:19;7.50;99.90
40952;DHT22;26682;51.660;19.338;2024-03-02T08:05:01;7.50;99.90
40952;DHT22;26682;51.660;19.338;2024-03-02T08:07:45;7.60;99.90
40952;DHT22;26682;51.660;19.338;2024-03-02T08:10:28;7.70;99.90
40952;DHT22;26682;51.660;19.338;2024-03-02T08:13:11;7.80;99.90
40952;DHT22;26682;51.660;19.338;2024-03-02T08:15:53;7.90;99.90
40952;DHT22;26682;51.660;19.338;2024-03-02T08:18:36;8.00;99.90
40952;DHT22;26682;51.660;19.338;2024-03-02T08:21:22;8.10;99.90
40952;DHT22;26682;51.660;19.338;2024-03-02T08:24:07;8.10;99.90
40952;DHT22;26682;51.660;19.338;2024-03-02T08:26:49;8.20;99.90
40952;DHT22;26682;51.660;19.338;2024-03-02T08:29:32;8.20;99.90
40952;DHT22;26682;51.660;19.338;2024-03-02T08:32:14;8.30;99.90
40952;DHT22;26682;51.660;19.338;2024-03-02T08:34:57;8.40;99.90
40952;DHT22;26682;51.660;19.338;2024-03-02T08:37:41;8.50;99.90
40952;DHT22;26682;51.660;19.338;2024-03-02T08:40:23;8.60;99.90
40952;DHT22;26682;51.660;19.338;2024-03-02T08:43:06;8.60;99.90
40952;DHT22;26682;51.660;19.338;2024-03-02T08:45:49;8.60;99.90
40952;DHT22;26682;51.660;19.338;2024-03-02T08:48:32;8.60;99.90
40952;DHT22;26682;51.660;19.338;2024-03-02T08:51:15;8.70;99.90
40952;DHT22;26682;51.660;19.338;2024-03-02T08:53:58;8.70;99.90
40952;DHT22;26682;51.660;19.338;2024-03-02T08:56:45;8.80;99.90
40952;DHT22;26682;51.660;19.338;2024-03-02T08:59:28;8.90;99.90
40952;DHT22;26682;51.660;19.338;2024-03-02T09:02:10;9.00;99.90
40952;DHT22;26682;51.660;19.338;2024-03-02T09:04:53;9.10;99.90
40952;DHT22;26682;51.660;19.338;2024-03-02T09:07:35;9.10;99.90
40952;DHT22;26682;51.660;19.338;2024-03-02T09:10:18;9.10;99.90
40952;DHT22;26682;51.660;19.338;2024-03-02T09:13:00;9.10;99.90
40952;DHT22;26682;51.660;19.338;2024-03-02T09:15:43;9.20;99.90
40952;DHT22;26682;51.660;19.338;2024-03-02T09:18:27;9.30;99.90
40952;DHT22;26682;51.660;19.338;2024-03-02T09:21:09;9.30;99.90
40952;DHT22;26682;51.660;19.338;2024-03-02T09:23:52;9.50;99.90
40952;DHT22;26682;51.660;19.338;2024-03-02T09:26:35;9.50;99.90
40952;DHT22;26682;51.660;19.338;2024-03-02T09:29:17;9.60;99.90
40952;DHT22;26682;51.660;19.338;2024-03-02T09:32:02;9.60;99.90
40952;DHT22;26682;51.660;19.338;2024-03-02T09:34:45;9.60;99.90
40952;DHT22;26682;51.660;19.338;2024-03-02T09:37:27;9.70;99.90
40952;DHT22;26682;51.660;19.338;2024-03-02T09:40:11;9.70;99.90
40952;DHT22;26682;51.660;19.338;2024-03-02T09:42:55;9.90;99.90
40952;DHT22;26682;51.660;19.338;2024-03-02T09:45:39;9.80;99.90
40952;DHT22;26682;51.660;19.338;2024-03-02T09:48:22;9.80;99.90
40952;DHT22;26682;51.660;19.338;2024-03-02T09:51:05;10.00;99.90
40952;DHT22;26682;51.660;19.338;2024-03-02T09:53:47;10.00;99.90
40952;DHT22;26682;51.660;19.338;2024-03-02T09:56:31;10.00;99.90
40952;DHT22;26682;51.660;19.338;2024-03-02T09:59:13;10.00;99.90
40952;DHT22;26682;51.660;19.338;2024-03-02T10:02:00;10.00;99.90
40952;DHT22;26682;51.660;19.338;2024-03-02T10:04:43;10.10;99.90
40952;DHT22;26682;51.660;19.338;2024-03-02T10:07:27;10.20;99.90
40952;DHT22;26682;51.660;19.338;2024-03-02T10:10:16;10.20;99.90
40952;DHT22;26682;51.660;19.338;2024-03-02T10:13:11;10.20;99.90
40952;DHT22;26682;51.660;19.338;2024-03-02T10:15:54;10.30;99.90
40952;DHT22;26682;51.660;19.338;2024-03-02T10:18:37;10.30;99.90
40952;DHT22;26682;51.660;19.338;2024-03-02T10:21:20;10.30;99.90
40952;DHT22;26682;51.660;19.338;2024-03-02T10:24:08;10.30;99.90
40952;DHT22;26682;51.660;19.338;2024-03-02T10:26:51;10.40;99.90
40952;DHT22;26682;51.660;19.338;2024-03-02T10:29:37;10.50;99.90
40952;DHT22;26682;51.660;19.338;2024-03-02T10:32:22;10.50;99.90
40952;DHT22;26682;51.660;19.338;2024-03-02T10:35:06;10.50;99.90
40952;DHT22;26682;51.660;19.338;2024-03-02T10:37:49;10.50;99.90
40952;DHT22;26682;51.660;19.338;2024-03-02T10:40:34;10.50;99.90
40952;DHT22;26682;51.660;19.338;2024-03-02T10:43:19;10.50;99.90
40952;DHT22;26682;51.660;19.338;2024-03-02T10:46:02;10.50;99.90
40952;DHT22;26682;51.660;19.338;2024-03-02T10:48:46;10.50;99.90
40952;DHT22;26682;51.660;19.338;2024-03-02T10:51:31;10.60;99.90
40952;DHT22;26682;51.660;19.338;2024-03-02T10:54:13;10.70;99.90
40952;DHT22;26682;51.660;19.338;2024-03-02T10:56:59;10.60;99.90
40952;DHT22;26682;51.660;19.338;2024-03-02T10:59:52;10.50;99.90
40952;DHT22;26682;51.660;19.338;2024-03-02T11:02:36;10.40;99.90
40952;DHT22;26682;51.660;19.338;2024-03-02T11:05:32;10.30;99.90
40952;DHT22;26682;51.660;19.338;2024-03-02T11:08:18;10.30;99.90
40952;DHT22;26682;51.660;19.338;2024-03-02T11:11:18;10.30;99.90
40952;DHT22;26682;51.660;19.338;2024-03-02T11:14:05;10.30;99.90
40952;DHT22;26682;51.660;19.338;2024-03-02T11:16:52;10.40;99.90
40952;DHT22;26682;51.660;19.338;2024-03-02T11:19:38;10.50;99.90
40952;DHT22;26682;51.660;19.338;2024-03-02T11:22:22;10.50;99.90
40952;DHT22;26682;51.660;19.338;2024-03-02T11:25:05;10.60;99.90
40952;DHT22;26682;51.660;19.338;2024-03-02T11:28:06;10.60;99.90
40952;DHT22;26682;51.660;19.338;2024-03-02T11:30:49;10.50;99.90
40952;DHT22;26682;51.660;19.338;2024-03-02T11:33:32;10.60;99.90
40952;DHT22;26682;51.660;19.338;2024-03-02T11:36:15;10.50;99.90
40952;DHT22;26682;51.660;19.338;2024-03-02T11:38:58;10.40;99.90
40952;DHT22;26682;51.660;19.338;2024-03-02T11:41:41;10.50;99.90
40952;DHT22;26682;51.660;19.338;2024-03-02T11:44:27;10.40;99.90
40952;DHT22;26682;51.660;19.338;2024-03-02T11:47:12;10.40;99.90
40952;DHT22;26682;51.660;19.338;2024-03-02T11:49:59;10.40;99.90
40952;DHT22;26682;51.660;19.338;2024-03-02T11:52:42;10.40;99.90
40952;DHT22;26682;51.660;19.338;2024-03-02T11:55:26;10.40;99.90
40952;DHT22;26682;51.660;19.338;2024-03-02T11:58:09;10.50;99.90
40952;DHT22;26682;51.660;19.338;2024-03-02T12:00:52;10.40;99.90
40952;DHT22;26682;51.660;19.338;2024-03-02T12:03:35;10.30;99.90
40952;DHT22;26682;51.660;19.338;2024-03-02T12:06:18;10.40;99.90
40952;DHT22;26682;51.660;19.338;2024-03-02T12:09:03;10.30;99.90
40952;DHT22;26682;51.660;19.338;2024-03-02T12:11:46;10.30;99.90
40952;DHT22;26682;51.660;19.338;2024-03-02T12:14:30;10.40;99.90
40952;DHT22;26682;51.660;19.338;2024-03-02T12:17:12;10.40;99.90
40952;DHT22;26682;51.660;19.338;2024-03-02T12:19:58;10.50;99.90
40952;DHT22;26682;51.660;19.338;2024-03-02T12:22:46;10.50;99.90
40952;DHT22;26682;51.660;19.338;2024-03-02T12:25:34;10.50;99.90
40952;DHT22;26682;51.660;19.338;2024-03-02T12:28:16;10.50;99.90
40952;DHT22;26682;51.660;19.338;2024-03-02T12:31:00;10.50;99.90
40952;DHT22;26682;51.660;19.338;2024-03-02T12:33:42;10.50;99.90
40952;DHT22;26682;51.660;19.338;2024-03-02T12:36:25;10.50;99.90
40952;DHT22;26682;51.660;19.338;2024-03-02T12:39:08;10.50;99.90
40952;DHT22;26682;51.660;19.338;2024-03-02T12:41:52;10.50;99.90
40952;DHT22;26682;51.660;19.338;2024-03-02T12:44:36;10.50;99.90
40952;DHT22;26682;51.660;19.338;2024-03-02T12:47:19;10.50;99.90
40952;DHT22;26682;51.660;19.338;2024-03-02T12:50:02;10.50;99.90
40952;DHT22;26682;51.660;19.338;2024-03-02T12:52:54;10.60;99.90
40952;DHT22;26682;51.660;19.338;2024-03-02T12:55:36;10.60;99.90
40952;DHT22;26682;51.660;19.338;2024-03-02T12:58:22;10.50;99.90
40952;DHT22;26682;51.660;19.338;2024-03-02T13:01:09;10.50;99.90
40952;DHT22;26682;51.660;19.338;2024-03-02T13:03:53;10.40;99.90
40952;DHT22;26682;51.660;19.338;2024-03-02T13:06:39;10.40;99.90
40952;DHT22;26682;51.660;19.338;2024-03-02T13:09:23;10.50;99.90
40952;DHT22;26682;51.660;19.338;2024-03-02T13:12:06;10.50;99.90
40952;DHT22;26682;51.660;19.338;2024-03-02T13:14:52;10.50;99.90
40952;DHT22;26682;51.660;19.338;2024-03-02T13:17:35;10.40;99.90
40952;DHT22;26682;51.660;19.338;2024-03-02T13:20:20;10.50;99.90
40952;DHT22;26682;51.660;19.338;2024-03-02T13:23:05;10.50;99.90
40952;DHT22;26682;51.660;19.338;2024-03-02T13:25:48;10.50;99.90
40952;DHT22;26682;51.660;19.338;2024-03-02T13:28:30;10.50;99.90
40952;DHT22;26682;51.660;19.338;2024-03-02T13:31:13;10.50;99.90
40952;DHT22;26682;51.660;19.338;2024-03-02T13:33:55;10.50;99.90
40952;DHT22;26682;51.660;19.338;2024-03-02T13:36:38;10.40;99.90
40952;DHT22;26682;51.660;19.338;2024-03-02T13:39:21;10.40;99.90
40952;DHT22;26682;51.660;19.338;2024-03-02T13:42:05;10.40;99.90
40952;DHT22;26682;51.660;19.338;2024-03-02T13:44:49;10.40;99.90
40952;DHT22;26682;51.660;19.338;2024-03-02T13:47:33;10.50;99.90
40952;DHT22;26682;51.660;19.338;2024-03-02T13:50:16;10.50;99.90
40952;DHT22;26682;51.660;19.338;2024-03-02T13:52:58;10.50;99.90
40952;DHT22;26682;51.660;19.338;2024-03-02T13:55:41;10.60;99.90
40952;DHT22;26682;51.660;19.338;2024-03-02T13:58:24;10.60;99.90
40952;DHT22;26682;51.660;19.338;2024-03-02T14:01:06;10.60;99.90
40952;DHT22;26682;51.660;19.338;2024-03-02T14:03:49;10.70;99.90
40952;DHT22;26682;51.660;19.338;2024-03-02T14:06:31;10.60;99.90
40952;DHT22;26682;51.660;19.338;2024-03-02T14:09:14;10.60;99.90
40952;DHT22;26682;51.660;19.338;2024-03-02T14:11:57;10.50;99.90
40952;DHT22;26682;51.660;19.338;2024-03-02T14:14:42;10.50;99.90
40952;DHT22;26682;51.660;19.338;2024-03-02T14:17:25;10.40;99.90
40952;DHT22;26682;51.660;19.338;2024-03-02T14:20:08;10.40;99.90
40952;DHT22;26682;51.660;19.338;2024-03-02T14:22:53;10.40;99.90
40952;DHT22;26682;51.660;19.338;2024-03-02T14:25:36;10.40;99.90
40952;DHT22;26682;51.660;19.338;2024-03-02T14:28:18;10.40;99.90
40952;DHT22;26682;51.660;19.338;2024-03-02T14:31:23;10.40;99.90
40952;DHT22;26682;51.660;19.338;2024-03-02T14:34:05;10.40;99.90
40952;DHT22;26682;51.660;19.338;2024-03-02T14:36:48;10.50;99.90
40952;DHT22;26682;51.660;19.338;2024-03-02T14:39:31;10.50;99.90
40952;DHT22;26682;51.660;19.338;2024-03-02T14:42:17;10.50;99.90
40952;DHT22;26682;51.660;19.338;2024-03-02T14:45:00;10.50;99.90
40952;DHT22;26682;51.660;19.338;2024-03-02T14:47:46;10.40;99.90
40952;DHT22;26682;51.660;19.338;2024-03-02T14:50:28;10.40;99.90
40952;DHT22;26682;51.660;19.338;2024-03-02T14:53:12;10.40;99.90
40952;DHT22;26682;51.660;19.338;2024-03-02T14:55:54;10.40;99.90
40952;DHT22;26682;51.660;19.338;2024-03-02T14:58:37;10.40;99.90
40952;DHT22;26682;51.660;19.338;2024-03-02T15:01:20;10.30;99.90
40952;DHT22;26682;51.660;19.338;2024-03-02T15:04:05;10.30;99.90
40952;DHT22;26682;51.660;19.338;2024-03-02T15:06:48;10.30;99.90
40952;DHT22;26682;51.660;19.338;2024-03-02T15:09:30;10.30;99.90
40952;DHT22;26682;51.660;19.338;2024-03-02T15:12:13;10.30;99.90
40952;DHT22;26682;51.660;19.338;2024-03-02T15:14:56;10.20;99.90
40952;DHT22;26682;51.660;19.338;2024-03-02T15:17:39;10.20;99.90
40952;DHT22;26682;51.660;19.338;2024-03-02T15:20:22;10.20;99.90
40952;DHT22;26682;51.660;19.338;2024-03-02T15:23:04;10.20;99.90
40952;DHT22;26682;51.660;19.338;2024-03-02T15:25:47;10.20;99.90
40952;DHT22;26682;51.660;19.338;2024-03-02T15:28:29;10.20;99.90
40952;DHT22;26682;51.660;19.338;2024-03-02T15:31:12;10.10;99.90
40952;DHT22;26682;51.660;19.338;2024-03-02T15:33:55;10.10;99.90
40952;DHT22;26682;51.660;19.338;2024-03-02T15:36:39;10.10;99.90
40952;DHT22;26682;51.660;19.338;2024-03-02T15:39:22;10.10;99.90
40952;DHT22;26682;51.660;19.338;2024-03-02T15:42:05;10.00;99.90
40952;DHT22;26682;51.660;19.338;2024-03-02T15:44:47;10.00;99.90
40952;DHT22;26682;51.660;19.338;2024-03-02T15:47:30;10.00;99.90
40952;DHT22;26682;51.660;19.338;2024-03-02T15:50:12;9.90;99.90
40952;DHT22;26682;51.660;19.338;2024-03-02T15:52:57;9.90;99.90
40952;DHT22;26682;51.660;19.338;2024-03-02T15:55:44;9.80;99.90
40952;DHT22;26682;51.660;19.338;2024-03-02T15:58:27;9.80;99.90
40952;DHT22;26682;51.660;19.338;2024-03-02T16:01:09;9.80;99.90
40952;DHT22;26682;51.660;19.338;2024-03-02T16:03:53;9.70;99.90
40952;DHT22;26682;51.660;19.338;2024-03-02T16:06:35;9.70;99.90
40952;DHT22;26682;51.660;19.338;2024-03-02T16:09:18;9.70;99.90
40952;DHT22;26682;51.660;19.338;2024-03-02T16:12:00;9.60;99.90
40952;DHT22;26682;51.660;19.338;2024-03-02T16:14:43;9.60;99.90
40952;DHT22;26682;51.660;19.338;2024-03-02T16:17:25;9.50;99.90
40952;DHT22;26682;51.660;19.338;2024-03-02T16:20:08;9.60;99.90
40952;DHT22;26682;51.660;19.338;2024-03-02T16:22:52;9.50;99.90
40952;DHT22;26682;51.660;19.338;2024-03-02T16:25:34;9.40;99.90
40952;DHT22;26682;51.660;19.338;2024-03-02T16:28:19;9.30;99.90
40952;DHT22;26682;51.660;19.338;2024-03-02T16:31:02;9.30;99.90
40952;DHT22;26682;51.660;19.338;2024-03-02T16:33:44;9.30;99.90
40952;DHT22;26682;51.660;19.338;2024-03-02T16:36:27;9.20;99.90
40952;DHT22;26682;51.660;19.338;2024-03-02T16:39:12;9.20;99.90
40952;DHT22;26682;51.660;19.338;2024-03-02T16:41:55;9.10;99.90
40952;DHT22;26682;51.660;19.338;2024-03-02T16:44:38;9.10;99.90
40952;DHT22;26682;51.660;19.338;2024-03-02T16:47:25;9.10;99.90
40952;DHT22;26682;51.660;19.338;2024-03-02T16:50:10;9.00;99.90
40952;DHT22;26682;51.660;19.338;2024-03-02T16:52:54;9.00;99.90
40952;DHT22;26682;51.660;19.338;2024-03-02T16:55:36;8.90;99.90
40952;DHT22;26682;51.660;19.338;2024-03-02T16:58:19;8.90;99.90
40952;DHT22;26682;51.660;19.338;2024-03-02T17:01:01;8.90;99.90
40952;DHT22;26682;51.660;19.338;2024-03-02T17:03:44;8.80;99.90
40952;DHT22;26682;51.660;19.338;2024-03-02T17:06:27;8.80;99.90
40952;DHT22;26682;51.660;19.338;2024-03-02T17:09:09;8.80;99.90
40952;DHT22;26682;51.660;19.338;2024-03-02T17:11:52;8.80;99.90
40952;DHT22;26682;51.660;19.338;2024-03-02T17:14:34;8.80;99.90
40952;DHT22;26682;51.660;19.338;2024-03-02T17:17:17;8.70;99.90